Appleton, New York
Current Conditions -  °F | °C
As of 5:53 AM on Friday 19 Dec 2014 (Local Time) from KIAG Reporting Station
Overcast Overcast  
Wind Chill: 14°   Ceiling: 1500
Heat Index: 25°   Visibility: 10mi
Dew Point: 20°   Wind: 12mph
Humidity: 81%   Direction: 310°NW
Pressure: 30.12"   Gusts: NA
Location:  43.33°N, 78.65°W
Report Text: KIAG 191053Z AUTO 31010KT 10SM BKN015 OVC020 M04/M07 A3012 RMK AO2 UPB08E35 SLP217 P0000 T10391067
Loading
Personal Weather Stations






























Interactive Weather Map New forecast layout! Learn more

10-Day Weather Forecast

Advertisements
Track Severe Weather on mobile